Time;durP1;ratioP1;P1;durP2;ratioP2;P2;SDS_P1;SDS_P2;PMS_P1;PMS_P2;Temp;Humidity;BMP_temperature;BMP_pressure;BME280_temperature;BME280_humidity;BME280_pressure;Samples;Min_cycle;Max_cycle;Signal;HPM_P1;HPM_P2
2024/01/25 00:01:08;;;;;;;31.27;6.78;;;;;;;6.99;100.00;102606.09;4997791;28;20034;-65
2024/01/25 00:03:33;;;;;;;22.33;6.07;;;;;;;6.97;100.00;102588.84;4996609;28;20033;-65
2024/01/25 00:16:13;;;;;;;30.05;6.53;;;;;;;6.82;100.00;102591.16;4971125;28;20081;-65
2024/01/25 00:18:39;;;;;;;31.77;7.68;;;;;;;6.79;100.00;102590.03;4981702;28;20514;-65
2024/01/25 00:21:04;;;;;;;37.03;7.63;;;;;;;6.77;100.00;102596.75;4992110;28;20045;-65
2024/01/25 00:23:29;;;;;;;28.80;7.03;;;;;;;6.75;100.00;102590.56;4995273;28;20406;-65
2024/01/25 00:25:58;;;;;;;32.45;7.70;;;;;;;6.72;100.00;102587.00;5007743;28;20032;-65
2024/01/25 00:28:24;;;;;;;30.65;7.43;;;;;;;6.70;100.00;102598.88;5002636;28;20448;-65
2024/01/25 00:30:49;;;;;;;31.48;6.78;;;;;;;6.69;100.00;102606.50;5000204;28;20474;-65
2024/01/25 00:33:14;;;;;;;28.05;6.28;;;;;;;6.66;100.00;102604.56;5002109;28;20391;-65
2024/01/25 00:35:40;;;;;;;30.40;5.82;;;;;;;6.65;100.00;102600.19;5000630;28;20378;-65
2024/01/25 00:38:05;;;;;;;29.85;7.00;;;;;;;6.62;100.00;102596.50;4994036;28;20024;-65
2024/01/25 00:40:31;;;;;;;26.10;6.40;;;;;;;6.62;100.00;102593.91;5007788;28;20079;-65
2024/01/25 00:42:56;;;;;;;25.90;6.38;;;;;;;6.59;100.00;102599.72;5007207;28;20505;-65
2024/01/25 00:45:24;;;;;;;37.13;7.18;;;;;;;6.56;100.00;102599.50;4994756;28;20030;-65
2024/01/25 00:47:50;;;;;;;28.13;6.20;;;;;;;6.55;100.00;102592.56;5001724;28;20097;-65
2024/01/25 00:50:23;;;;;;;29.73;7.18;;;;;;;6.52;100.00;102597.44;5000962;28;20026;-65
2024/01/25 00:52:50;;;;;;;28.73;6.57;;;;;;;6.51;100.00;102598.25;4976214;28;20033;-65
2024/01/25 00:55:15;;;;;;;32.38;7.55;;;;;;;6.48;100.00;102604.03;5001094;28;20036;-65
2024/01/25 00:57:41;;;;;;;37.55;6.43;;;;;;;6.46;100.00;102609.09;5006803;28;20386;-65
2024/01/25 01:00:08;;;;;;;30.83;6.53;;;;;;;6.40;100.00;102608.63;4990923;28;20026;-65
2024/01/25 01:02:36;;;;;;;30.95;7.50;;;;;;;6.35;100.00;102604.78;4996541;28;20041;-65
2024/01/25 01:05:01;;;;;;;34.58;6.88;;;;;;;6.33;100.00;102609.78;5006246;28;20018;-65
2024/01/25 01:07:27;;;;;;;25.02;6.40;;;;;;;6.31;100.00;102613.03;5006587;28;20563;-65
2024/01/25 01:09:52;;;;;;;31.10;6.60;;;;;;;6.29;100.00;102614.59;5006584;28;20046;-65
2024/01/25 01:12:17;;;;;;;32.97;6.65;;;;;;;6.26;100.00;102615.25;5007208;28;20590;-65
2024/01/25 01:14:43;;;;;;;32.60;6.70;;;;;;;6.23;100.00;102615.00;4993530;28;20075;-65
2024/01/25 01:17:08;;;;;;;31.50;7.25;;;;;;;6.21;100.00;102619.13;5007248;28;20018;-65
2024/01/25 01:19:34;;;;;;;30.50;6.22;;;;;;;6.17;100.00;102625.72;4999022;28;20011;-65
2024/01/25 01:21:59;;;;;;;25.95;6.75;;;;;;;6.18;100.00;102612.09;4978600;28;20518;-65
2024/01/25 01:24:24;;;;;;;33.72;6.70;;;;;;;6.13;100.00;102613.41;4970102;28;20045;-65
2024/01/25 01:26:50;;;;;;;25.92;6.75;;;;;;;6.12;100.00;102621.88;4967991;28;20037;-65
2024/01/25 01:29:16;;;;;;;26.00;7.18;;;;;;;6.05;100.00;102624.72;4968702;28;20105;-65
2024/01/25 01:31:41;;;;;;;35.97;7.35;;;;;;;6.00;100.00;102625.28;4968421;28;20159;-65
2024/01/25 01:34:06;;;;;;;39.92;8.43;;;;;;;5.98;100.00;102631.06;4982201;28;20661;-65
2024/01/25 01:36:32;;;;;;;33.72;7.25;;;;;;;5.97;100.00;102635.31;4969299;28;20035;-65
2024/01/25 01:38:57;;;;;;;35.35;7.03;;;;;;;5.95;100.00;102631.72;4973093;28;20470;-65
2024/01/25 01:41:22;;;;;;;31.80;7.55;;;;;;;5.94;100.00;102629.00;4976742;28;20041;-65
2024/01/25 01:43:52;;;;;;;28.90;6.18;;;;;;;5.93;100.00;102632.38;4980969;28;20037;-65
2024/01/25 01:46:23;;;;;;;25.77;6.20;;;;;;;5.87;100.00;102630.19;4979104;28;20046;-65
2024/01/25 02:21:51;;;;;;;30.65;7.22;;;;;;;5.25;100.00;102680.09;4970515;28;20053;-65
2024/01/25 02:24:16;;;;;;;34.20;7.18;;;;;;;5.21;100.00;102680.63;4971306;28;20084;-65
2024/01/25 02:26:41;;;;;;;38.28;6.45;;;;;;;5.18;100.00;102685.50;4971189;28;20125;-65
2024/01/25 02:29:08;;;;;;;28.70;5.88;;;;;;;5.14;100.00;102685.25;4971368;28;20457;-65
2024/01/25 02:31:33;;;;;;;31.00;6.93;;;;;;;5.08;100.00;102684.72;4971230;28;20441;-65
2024/01/25 02:33:58;;;;;;;33.58;7.07;;;;;;;5.03;100.00;102686.00;4970958;28;20031;-65
2024/01/25 02:36:24;;;;;;;26.50;6.43;;;;;;;5.00;100.00;102690.91;4971416;28;20034;-64
2024/01/25 02:38:49;;;;;;;34.35;5.93;;;;;;;4.95;100.00;102699.91;4971598;28;20030;-65
2024/01/25 02:41:14;;;;;;;29.80;6.47;;;;;;;4.88;100.00;102696.78;4971481;28;20299;-65
2024/01/25 02:43:40;;;;;;;36.75;6.38;;;;;;;4.83;100.00;102692.03;4971771;28;20383;-65
2024/01/25 02:46:05;;;;;;;36.05;7.18;;;;;;;4.75;100.00;102689.69;4971428;28;20066;-65
2024/01/25 02:48:31;;;;;;;34.42;6.45;;;;;;;4.74;100.00;102697.28;4971239;28;20026;-65
2024/01/25 02:50:56;;;;;;;27.17;6.20;;;;;;;4.72;100.00;102693.66;4971129;28;20118;-65
2024/01/25 02:53:22;;;;;;;34.30;7.18;;;;;;;4.67;100.00;102683.00;4971811;28;20129;-65
2024/01/25 02:55:47;;;;;;;25.58;5.88;;;;;;;4.68;100.00;102677.09;4993376;28;20037;-64
2024/01/25 02:58:12;;;;;;;34.25;6.45;;;;;;;4.69;100.00;102678.91;4983628;28;20452;-64
2024/01/25 03:00:38;;;;;;;30.88;7.03;;;;;;;4.70;100.00;102690.97;4989926;28;20042;-64
2024/01/25 03:03:03;;;;;;;26.08;7.25;;;;;;;4.67;100.00;102690.72;5003487;28;20530;-64
2024/01/25 03:05:28;;;;;;;35.15;7.05;;;;;;;4.67;100.00;102690.72;4996280;28;20031;-64
2024/01/25 03:07:54;;;;;;;30.38;5.70;;;;;;;4.64;100.00;102680.19;4971120;28;20041;-64
2024/01/25 03:10:19;;;;;;;36.10;6.55;;;;;;;4.65;100.00;102692.25;4970948;28;20502;-65
2024/01/25 03:12:45;;;;;;;30.38;6.25;;;;;;;4.64;100.00;102687.88;4970522;28;20046;-64
2024/01/25 03:15:11;;;;;;;34.40;6.90;;;;;;;4.62;100.00;102680.06;4978387;28;20031;-65
2024/01/25 03:17:36;;;;;;;39.10;7.63;;;;;;;4.61;100.00;102679.91;4989834;28;20129;-65
2024/01/25 03:20:02;;;;;;;32.17;6.65;;;;;;;4.62;100.00;102676.56;4990429;28;20105;-65
2024/01/25 03:22:27;;;;;;;39.63;7.30;;;;;;;4.60;100.00;102683.25;5002627;28;20029;-64
2024/01/25 03:24:53;;;;;;;33.92;7.07;;;;;;;4.59;100.00;102669.50;5009170;28;20055;-64
2024/01/25 03:27:18;;;;;;;33.47;6.75;;;;;;;4.58;100.00;102670.28;5005724;28;20022;-64
2024/01/25 03:29:43;;;;;;;26.85;5.15;;;;;;;4.57;100.00;102679.66;4989226;28;20034;-64
2024/01/25 03:32:12;;;;;;;27.08;5.93;;;;;;;4.55;100.00;102681.16;4989315;28;20026;-64
2024/01/25 03:34:37;;;;;;;40.65;7.15;;;;;;;4.53;100.00;102687.84;5008204;28;20026;-65
2024/01/25 03:37:03;;;;;;;37.60;6.85;;;;;;;4.50;100.00;102692.72;5008250;28;20608;-65
2024/01/25 03:39:28;;;;;;;29.25;7.13;;;;;;;4.47;100.00;102699.25;5008041;28;20018;-64
2024/01/25 03:41:53;;;;;;;31.10;7.03;;;;;;;4.37;100.00;102697.56;4992996;28;20553;-64
2024/01/25 03:44:18;;;;;;;37.03;6.63;;;;;;;4.31;100.00;102695.34;4988021;28;20022;-64
2024/01/25 03:46:44;;;;;;;33.22;6.95;;;;;;;4.28;100.00;102703.69;5002361;28;20041;-64
2024/01/25 03:49:09;;;;;;;27.30;5.45;;;;;;;4.20;100.00;102707.25;4998877;28;20068;-64
2024/01/25 03:51:34;;;;;;;28.08;7.18;;;;;;;4.12;100.00;102713.38;4989242;28;20467;-64
2024/01/25 03:54:00;;;;;;;27.53;6.60;;;;;;;4.08;100.00;102714.78;5006874;28;20065;-64
2024/01/25 03:56:26;;;;;;;28.20;5.32;;;;;;;4.02;100.00;102701.38;5008990;28;20048;-64
2024/01/25 03:58:52;;;;;;;27.50;6.15;;;;;;;3.98;100.00;102695.06;5008311;28;20026;-64
2024/01/25 04:01:17;;;;;;;29.33;6.35;;;;;;;4.00;100.00;102696.13;4996073;28;20022;-64
2024/01/25 04:03:42;;;;;;;31.30;5.97;;;;;;;4.04;100.00;102694.72;5001846;28;20446;-65
2024/01/25 04:06:08;;;;;;;33.07;6.00;;;;;;;4.03;100.00;102693.81;4989116;28;20026;-64
2024/01/25 04:08:33;;;;;;;36.45;6.32;;;;;;;4.05;100.00;102701.66;4971538;28;20066;-64
2024/01/25 04:10:58;;;;;;;30.67;5.95;;;;;;;4.02;100.00;102702.28;4969462;28;20435;-64
2024/01/25 04:13:24;;;;;;;27.60;6.17;;;;;;;3.94;100.00;102703.28;4981554;28;20030;-64
2024/01/25 04:15:49;;;;;;;28.73;5.80;;;;;;;3.90;100.00;102706.31;4969519;28;20023;-64
2024/01/25 04:18:14;;;;;;;29.75;5.72;;;;;;;3.88;100.00;102705.28;4975587;28;20023;-64
2024/01/25 04:20:41;;;;;;;34.78;5.63;;;;;;;3.88;100.00;102707.84;4977291;28;20480;-64
2024/01/25 04:23:06;;;;;;;28.10;5.88;;;;;;;3.87;100.00;102708.63;4983590;28;20467;-64
2024/01/25 04:25:32;;;;;;;30.10;6.77;;;;;;;3.86;100.00;102710.28;4970632;28;20027;-64
2024/01/25 04:27:57;;;;;;;26.23;6.68;;;;;;;3.88;100.00;102712.97;4969707;28;20023;-64
2024/01/25 04:30:22;;;;;;;31.77;5.53;;;;;;;3.91;100.00;102710.69;4980704;28;20495;-64
2024/01/25 04:32:47;;;;;;;32.00;6.90;;;;;;;3.92;100.00;102699.69;4970053;28;20451;-64
2024/01/25 04:35:13;;;;;;;29.90;5.87;;;;;;;3.92;100.00;102699.69;4970275;28;20029;-64
2024/01/25 04:37:38;;;;;;;25.67;6.40;;;;;;;3.87;100.00;102701.81;4969711;28;20019;-64
2024/01/25 04:40:05;;;;;;;30.80;6.20;;;;;;;3.86;100.00;102694.88;4969287;28;20103;-64
2024/01/25 04:42:30;;;;;;;35.47;6.67;;;;;;;3.86;100.00;102693.97;4969245;28;20113;-64
2024/01/25 04:44:55;;;;;;;25.13;5.33;;;;;;;3.84;100.00;102697.31;4970784;28;20455;-64
2024/01/25 04:47:21;;;;;;;36.47;6.37;;;;;;;3.83;100.00;102694.63;4975542;28;20045;-64
2024/01/25 04:49:47;;;;;;;33.47;6.50;;;;;;;3.81;100.00;102691.91;4987976;28;20101;-64
2024/01/25 04:52:12;;;;;;;32.73;7.90;;;;;;;3.82;100.00;102703.06;4981323;28;20161;-64
2024/01/25 04:54:37;;;;;;;30.03;6.23;;;;;;;3.80;100.00;102690.09;4982423;28;20030;-64
2024/01/25 04:57:06;;;;;;;40.23;6.40;;;;;;;3.80;100.00;102695.25;5006940;28;20033;-64
2024/01/25 04:59:31;;;;;;;30.50;6.20;;;;;;;3.81;100.00;102702.16;5007546;28;20493;-64
2024/01/25 05:01:57;;;;;;;34.10;6.87;;;;;;;3.81;100.00;102707.28;5007009;28;20017;-64
2024/01/25 05:04:23;;;;;;;24.50;5.97;;;;;;;3.80;100.00;102705.50;4996552;28;20034;-64
2024/01/25 05:06:48;;;;;;;29.37;6.50;;;;;;;3.79;100.00;102710.50;4991355;28;20486;-64
2024/01/25 05:09:13;;;;;;;33.40;6.10;;;;;;;3.76;100.00;102703.41;4996034;28;20030;-64
2024/01/25 05:11:39;;;;;;;24.53;5.80;;;;;;;3.75;100.00;102691.38;4987293;28;20052;-65
2024/01/25 05:14:05;;;;;;;41.70;7.70;;;;;;;3.74;100.00;102688.66;4987953;28;20026;-64
2024/01/25 05:16:31;;;;;;;23.30;6.03;;;;;;;3.71;100.00;102686.72;5004073;28;20045;-64
2024/01/25 05:18:56;;;;;;;29.30;7.23;;;;;;;3.70;100.00;102679.78;5007417;28;20029;-64
2024/01/25 05:21:21;;;;;;;26.27;6.13;;;;;;;3.68;100.00;102684.78;5006343;28;20028;-64
2024/01/25 05:23:47;;;;;;;28.23;5.40;;;;;;;3.64;100.00;102686.91;5006950;28;20037;-64
2024/01/25 05:26:12;;;;;;;39.43;6.67;;;;;;;3.59;100.00;102682.31;4994624;28;20397;-64
2024/01/25 05:28:37;;;;;;;28.53;6.03;;;;;;;3.59;100.00;102683.94;5006973;28;20619;-64
2024/01/25 05:31:03;;;;;;;28.30;6.37;;;;;;;3.58;100.00;102689.84;5001006;28;20190;-64
2024/01/25 05:33:28;;;;;;;28.10;6.63;;;;;;;3.55;100.00;102677.66;5000392;28;20029;-64
2024/01/25 05:35:53;;;;;;;29.03;6.00;;;;;;;3.55;100.00;102687.00;5006389;28;20061;-64
2024/01/25 05:38:19;;;;;;;27.03;5.87;;;;;;;3.52;100.00;102687.63;5007326;28;20077;-64
2024/01/25 05:40:44;;;;;;;29.00;5.97;;;;;;;3.48;100.00;102686.44;5007904;28;20065;-64
2024/01/25 05:43:09;;;;;;;28.90;6.27;;;;;;;3.44;100.00;102693.72;5011483;28;20034;-64
2024/01/25 05:45:35;;;;;;;24.60;5.70;;;;;;;3.41;100.00;102694.34;4997168;28;20053;-64
2024/01/25 05:48:00;;;;;;;28.03;5.47;;;;;;;3.39;100.00;102690.72;5011132;28;20469;-64
2024/01/25 05:50:25;;;;;;;27.50;6.47;;;;;;;3.36;100.00;102701.59;5003811;28;20045;-64
2024/01/25 05:52:51;;;;;;;30.13;5.67;;;;;;;3.33;100.00;102701.31;5004209;28;20044;-64
2024/01/25 05:55:16;;;;;;;25.47;6.63;;;;;;;3.32;100.00;102709.78;5002816;28;20144;-64
2024/01/25 05:57:43;;;;;;;29.20;5.93;;;;;;;3.31;100.00;102718.22;4993169;28;20030;-64
2024/01/25 06:00:11;;;;;;;26.80;6.13;;;;;;;3.30;100.00;102720.63;4972487;28;20108;-64
2024/01/25 06:02:36;;;;;;;27.33;8.30;;;;;;;3.26;100.00;102723.69;4983666;28;20057;-64
2024/01/25 06:05:01;;;;;;;24.17;7.33;;;;;;;3.20;100.00;102719.78;4979714;28;20021;-64
2024/01/25 06:07:27;;;;;;;29.50;6.03;;;;;;;3.14;100.00;102710.63;4990301;28;20100;-64
2024/01/25 06:09:53;;;;;;;31.87;6.77;;;;;;;3.11;100.00;102709.59;4987484;28;20018;-64
2024/01/25 06:12:18;;;;;;;27.87;5.63;;;;;;;3.06;100.00;102705.69;4986806;28;20114;-64
2024/01/25 06:14:44;;;;;;;29.37;7.00;;;;;;;3.02;100.00;102698.50;4979920;28;20026;-64
2024/01/25 06:17:09;;;;;;;21.10;5.73;;;;;;;2.99;100.00;102703.31;4977258;28;20395;-64
2024/01/25 06:19:34;;;;;;;25.13;5.47;;;;;;;2.94;100.00;102712.25;4982608;28;20543;-64
2024/01/25 06:22:00;;;;;;;22.20;6.13;;;;;;;2.90;100.00;102703.38;4990856;28;20584;-64
2024/01/25 06:24:25;;;;;;;25.30;5.73;;;;;;;2.85;100.00;102705.50;4979831;28;20394;-64
2024/01/25 06:26:51;;;;;;;24.53;6.27;;;;;;;2.83;100.00;102698.44;4982952;28;20033;-64
2024/01/25 06:29:16;;;;;;;31.43;5.80;;;;;;;2.82;100.00;102715.47;4977268;28;20497;-64
2024/01/25 06:31:44;;;;;;;23.87;5.67;;;;;;;2.79;100.00;102714.28;4984019;28;20026;-64
2024/01/25 06:34:10;;;;;;;26.63;5.60;;;;;;;2.78;100.00;102725.28;4982646;28;20014;-64
2024/01/25 06:36:35;;;;;;;30.03;6.73;;;;;;;2.78;100.00;102728.75;4980648;28;20261;-64
2024/01/25 06:39:01;;;;;;;26.27;6.80;;;;;;;2.79;100.00;102729.66;4982159;28;20432;-64
2024/01/25 06:41:26;;;;;;;31.53;7.77;;;;;;;2.79;100.00;102735.66;4985388;28;20038;-64
2024/01/25 06:43:52;;;;;;;24.90;6.80;;;;;;;2.79;100.00;102729.66;4984504;28;20097;-64
2024/01/25 06:46:17;;;;;;;27.43;7.27;;;;;;;2.76;100.00;102730.25;4985245;28;20058;-64
2024/01/25 06:48:43;;;;;;;22.70;6.30;;;;;;;2.75;100.00;102738.72;4983122;28;21083;-65
2024/01/25 06:51:08;;;;;;;27.07;6.60;;;;;;;2.74;100.00;102734.31;4990524;28;20023;-65
2024/01/25 06:53:33;;;;;;;27.70;7.07;;;;;;;2.70;100.00;102730.56;4982351;28;20069;-64
2024/01/25 06:55:58;;;;;;;23.60;5.93;;;;;;;2.68;100.00;102737.19;4985216;28;20065;-65
2024/01/25 06:58:25;;;;;;;27.30;7.53;;;;;;;2.64;100.00;102728.31;4992163;28;20029;-65
2024/01/25 07:00:50;;;;;;;26.87;6.73;;;;;;;2.61;100.00;102729.69;4984333;28;20026;-65
2024/01/25 07:03:15;;;;;;;23.63;6.17;;;;;;;2.58;100.00;102730.31;4994306;28;20327;-65
2024/01/25 07:05:41;;;;;;;28.60;7.37;;;;;;;2.54;100.00;102727.34;4996065;28;20033;-64
2024/01/25 07:08:08;;;;;;;28.57;7.60;;;;;;;2.52;100.00;102733.19;4986688;28;20519;-64
2024/01/25 07:10:34;;;;;;;24.97;6.20;;;;;;;2.48;100.00;102731.09;4990577;28;20041;-64
2024/01/25 07:12:59;;;;;;;19.70;6.37;;;;;;;2.44;100.00;102725.53;4988371;28;20022;-64
2024/01/25 07:15:25;;;;;;;20.77;5.67;;;;;;;2.40;100.00;102719.22;4990225;28;20030;-64
2024/01/25 07:17:50;;;;;;;18.27;6.00;;;;;;;2.38;100.00;102726.75;4989327;28;20022;-64
2024/01/25 07:20:16;;;;;;;24.50;6.07;;;;;;;2.38;100.00;102716.53;4991981;28;20041;-64
2024/01/25 07:22:41;;;;;;;21.10;7.37;;;;;;;2.36;100.00;102720.59;4988748;28;20034;-64
2024/01/25 07:25:07;;;;;;;23.50;6.73;;;;;;;2.33;100.00;102721.94;4992250;28;20033;-64
2024/01/25 07:27:32;;;;;;;34.17;9.83;;;;;;;2.28;100.00;102724.94;4995034;28;20035;-64
2024/01/25 07:29:57;;;;;;;28.93;7.73;;;;;;;2.33;100.00;102742.41;4995135;28;20026;-64
2024/01/25 07:32:26;;;;;;;31.13;7.30;;;;;;;2.35;100.00;102736.72;4990799;28;20037;-64
2024/01/25 07:34:52;;;;;;;31.73;8.50;;;;;;;2.39;100.00;102743.03;4992177;28;20029;-64
2024/01/25 07:37:20;;;;;;;26.47;8.60;;;;;;;2.45;100.00;102747.81;4995184;28;20030;-64
2024/01/25 07:39:45;;;;;;;35.53;8.10;;;;;;;2.47;100.00;102749.75;4988129;28;20089;-64
2024/01/25 07:42:12;;;;;;;34.60;8.27;;;;;;;2.52;100.00;102747.63;4988131;28;20022;-64
2024/01/25 07:44:37;;;;;;;29.80;8.63;;;;;;;2.58;100.00;102735.44;4990021;28;20261;-64
2024/01/25 07:47:03;;;;;;;33.57;7.63;;;;;;;2.67;100.00;102737.06;4986902;28;20100;-64
2024/01/25 07:49:29;;;;;;;31.97;7.47;;;;;;;2.76;100.00;102743.06;4990120;28;20055;-64
2024/01/25 07:51:56;;;;;;;27.20;7.67;;;;;;;2.80;100.00;102741.69;4988985;28;20487;-64
2024/01/25 07:54:22;;;;;;;32.43;7.73;;;;;;;2.82;100.00;102741.09;5000037;28;20402;-64
2024/01/25 07:56:47;;;;;;;32.80;7.23;;;;;;;2.86;100.00;102738.03;5008409;28;20052;-64
2024/01/25 07:59:12;;;;;;;30.77;8.73;;;;;;;2.88;100.00;102741.66;4992182;28;20026;-64
2024/01/25 08:01:37;;;;;;;28.30;6.97;;;;;;;2.92;100.00;102747.06;4983666;28;20383;-64
2024/01/25 08:04:03;;;;;;;21.97;7.23;;;;;;;2.95;100.00;102750.81;4980186;28;20057;-64
2024/01/25 08:06:28;;;;;;;27.83;7.90;;;;;;;2.99;100.00;102749.44;4981722;28;20026;-64
2024/01/25 08:08:53;;;;;;;38.87;8.57;;;;;;;3.04;100.00;102755.88;4969640;28;20389;-64
2024/01/25 08:11:20;;;;;;;38.33;10.17;;;;;;;3.11;100.00;102760.84;4982490;28;20173;-64
2024/01/25 08:13:45;;;;;;;35.17;9.07;;;;;;;3.19;100.00;102758.09;4969594;28;20070;-64
2024/01/25 08:16:11;;;;;;;38.60;9.50;;;;;;;3.24;100.00;102756.84;4969218;28;20415;-64
2024/01/25 08:18:36;;;;;;;40.23;10.07;;;;;;;3.28;100.00;102751.25;4968918;28;20027;-64
2024/01/25 08:21:02;;;;;;;43.00;9.80;;;;;;;3.35;100.00;102745.94;4969255;28;21095;-64
2024/01/25 08:23:27;;;;;;;36.50;9.93;;;;;;;3.41;100.00;102754.97;4978100;28;20109;-64
2024/01/25 08:25:53;;;;;;;45.97;10.93;;;;;;;3.43;100.00;102761.13;4972926;28;20023;-64
2024/01/25 08:28:19;;;;;;;41.77;10.90;;;;;;;3.45;100.00;102768.19;4978525;28;20443;-64
2024/01/25 08:30:45;;;;;;;37.13;9.63;;;;;;;3.51;100.00;102761.84;4973023;28;20022;-64
2024/01/25 08:33:10;;;;;;;40.20;10.47;;;;;;;3.56;100.00;102746.09;4969883;28;20361;-64
2024/01/25 08:35:35;;;;;;;42.53;10.03;;;;;;;3.62;100.00;102729.50;4969722;28;20485;-64
2024/01/25 08:38:01;;;;;;;42.73;11.73;;;;;;;3.63;100.00;102719.38;4969787;28;20019;-64
2024/01/25 08:40:26;;;;;;;35.23;11.27;;;;;;;3.67;100.00;102724.00;4970418;28;20015;-64
2024/01/25 08:42:51;;;;;;;28.27;10.70;;;;;;;3.71;100.00;102732.88;4978410;28;20471;-64
2024/01/25 08:45:16;;;;;;;34.50;9.40;;;;;;;3.74;100.00;102733.16;4975361;28;20025;-64
2024/01/25 08:47:44;;;;;;;42.50;11.13;;;;;;;3.78;100.00;102745.50;4997537;28;20050;-64
2024/01/25 08:50:11;;;;;;;39.40;10.60;;;;;;;3.81;100.00;102748.31;4987522;28;20019;-64
2024/01/25 08:52:37;;;;;;;35.60;11.03;;;;;;;3.85;100.00;102754.63;4978304;28;20042;-64
2024/01/25 08:55:04;;;;;;;31.30;10.47;;;;;;;3.90;100.00;102765.34;5004064;28;20083;-64
2024/01/25 08:57:30;;;;;;;33.38;10.07;;;;;;;3.95;100.00;102761.50;5007301;28;20467;-64
2024/01/25 08:59:58;;;;;;;33.50;12.03;;;;;;;4.02;100.00;102763.88;4993263;28;20053;-64
2024/01/25 09:02:26;;;;;;;40.60;12.05;;;;;;;4.08;100.00;102760.97;4999649;28;20605;-64
2024/01/25 09:04:52;;;;;;;33.87;11.97;;;;;;;4.12;100.00;102764.69;4999847;28;20045;-64
2024/01/25 09:07:17;;;;;;;39.63;12.02;;;;;;;4.16;100.00;102777.94;4995197;28;20018;-64
2024/01/25 09:09:42;;;;;;;33.60;11.48;;;;;;;4.18;100.00;102776.41;5006471;28;20569;-64
2024/01/25 09:12:11;;;;;;;36.58;12.07;;;;;;;4.24;100.00;102765.78;4998533;28;20022;-64
2024/01/25 09:14:36;;;;;;;37.05;11.82;;;;;;;4.27;100.00;102760.94;5001411;28;20061;-64
2024/01/25 09:17:01;;;;;;;32.33;12.00;;;;;;;4.32;100.00;102775.06;5007266;28;20474;-64
2024/01/25 09:19:27;;;;;;;30.73;10.60;;;;;;;4.41;100.00;102771.50;5006287;28;20498;-64
2024/01/25 09:21:52;;;;;;;36.47;11.80;;;;;;;4.43;100.00;102769.97;4997799;28;20082;-64
2024/01/25 09:24:17;;;;;;;35.10;12.57;;;;;;;4.45;100.00;102765.88;4974191;28;20029;-64
2024/01/25 09:26:42;;;;;;;30.50;12.30;;;;;;;4.50;100.00;102768.84;4979213;28;20038;-64
2024/01/25 09:29:08;;;;;;;35.25;12.88;;;;;;;4.55;100.00;102765.91;4981074;28;20042;-64
2024/01/25 09:31:33;;;;;;;31.92;12.02;;;;;;;4.60;100.00;102760.28;4977012;28;20045;-64
2024/01/25 09:33:59;;;;;;;28.00;12.18;;;;;;;4.66;100.00;102771.09;4984169;28;20104;-64
2024/01/25 09:36:24;;;;;;;32.38;13.02;;;;;;;4.66;100.00;102766.84;4968127;28;20033;-64
2024/01/25 09:38:49;;;;;;;34.25;14.15;;;;;;;4.68;100.00;102767.91;4968665;28;20061;-64
2024/01/25 09:41:15;;;;;;;32.40;14.02;;;;;;;4.74;100.00;102772.66;4967994;28;20097;-64
2024/01/25 09:43:40;;;;;;;32.88;13.30;;;;;;;4.74;100.00;102770.09;4968909;28;20496;-64
2024/01/25 09:46:06;;;;;;;27.45;12.45;;;;;;;4.83;100.00;102763.94;4976112;28;20549;-64
2024/01/25 09:48:32;;;;;;;27.38;14.30;;;;;;;4.86;100.00;102765.13;4975000;28;20447;-64
2024/01/25 09:50:58;;;;;;;30.30;13.73;;;;;;;4.91;100.00;102774.13;4977854;28;20030;-64
2024/01/25 09:53:24;;;;;;;29.65;14.00;;;;;;;4.98;100.00;102775.56;4981053;28;20042;-64
2024/01/25 09:56:09;;;;;;;33.85;14.32;;;;;;;5.04;100.00;102770.94;4984533;28;20031;-64
2024/01/25 09:58:41;;;;;;;38.80;15.43;;;;;;;5.10;100.00;102769.66;4986872;28;20477;-64
2024/01/25 10:01:11;;;;;;;31.00;14.88;;;;;;;5.09;100.00;102758.47;4976579;28;20030;-64
2024/01/25 10:03:37;;;;;;;39.30;14.90;;;;;;;5.13;100.00;102762.22;4968165;28;20470;-64
2024/01/25 10:06:03;;;;;;;30.52;14.65;;;;;;;5.11;100.00;102761.22;4968791;28;20325;-64
2024/01/25 10:08:29;;;;;;;39.42;15.40;;;;;;;5.18;100.00;102757.47;4967544;28;20026;-64
2024/01/25 10:10:54;;;;;;;40.13;14.10;;;;;;;5.23;100.00;102746.81;4968308;28;20174;-64
2024/01/25 10:13:20;;;;;;;40.13;15.40;;;;;;;5.26;100.00;102752.22;4971774;28;20053;-64
2024/01/25 10:15:47;;;;;;;36.08;14.65;;;;;;;5.38;100.00;102751.44;4975875;28;20023;-64
2024/01/25 10:18:13;;;;;;;41.92;15.70;;;;;;;5.38;100.00;102742.06;4985831;28;20022;-64
2024/01/25 10:20:47;;;;;;;34.35;13.98;;;;;;;5.42;100.00;102732.94;4974927;28;20030;-64
2024/01/25 10:23:13;;;;;;;45.53;16.75;;;;;;;5.39;100.00;102733.59;4967682;28;20026;-64
2024/01/25 10:25:38;;;;;;;45.45;15.15;;;;;;;5.45;100.00;102748.59;4968244;28;20037;-64
2024/01/25 10:28:04;;;;;;;37.45;15.55;;;;;;;5.56;100.00;102746.06;4971124;28;20081;-64
2024/01/25 10:30:35;;;;;;;51.15;17.38;;;;;;;5.56;100.00;102751.19;4971468;28;20034;-64
2024/01/25 10:33:01;;;;;;;34.25;14.50;;;;;;;5.52;100.00;102732.91;4971668;28;20026;-64
2024/01/25 10:35:27;;;;;;;37.28;14.73;;;;;;;5.64;100.00;102727.91;4972520;28;20541;-64
2024/01/25 10:37:53;;;;;;;35.38;14.48;;;;;;;5.65;100.00;102714.25;4971809;28;20054;-64
2024/01/25 10:40:20;;;;;;;41.25;14.25;;;;;;;5.71;100.00;102711.31;4971924;28;20031;-64
2024/01/25 10:42:45;;;;;;;42.63;15.18;;;;;;;5.70;100.00;102714.63;4979729;28;20026;-64
2024/01/25 10:45:11;;;;;;;46.10;15.98;;;;;;;5.74;100.00;102720.94;4977921;28;20170;-64
2024/01/25 10:47:37;;;;;;;34.88;13.95;;;;;;;5.73;100.00;102707.19;4981371;28;20058;-64
2024/01/25 10:50:04;;;;;;;43.60;14.80;;;;;;;5.77;100.00;102710.91;4971628;28;20112;-64
2024/01/25 10:52:30;;;;;;;30.95;13.30;;;;;;;5.84;100.00;102702.91;4980421;28;20022;-64
2024/01/25 10:54:57;;;;;;;40.03;13.57;;;;;;;5.88;100.00;102710.09;4991592;28;20112;-64
2024/01/25 10:57:23;;;;;;;31.77;12.40;;;;;;;5.94;100.00;102701.97;5003062;28;20026;-64
2024/01/25 10:59:49;;;;;;;34.67;11.82;;;;;;;6.02;100.00;102697.47;4976896;28;20034;-64
2024/01/25 11:02:19;;;;;;;34.53;12.05;;;;;;;6.06;100.00;102693.50;4970773;28;20031;-64
2024/01/25 11:04:53;;;;;;;35.88;11.68;;;;;;;6.13;100.00;102700.94;4971428;28;20070;-64
2024/01/25 11:07:19;;;;;;;41.92;11.98;;;;;;;6.16;100.00;102698.59;4989853;28;20125;-65
2024/01/25 11:09:48;;;;;;;36.13;12.02;;;;;;;6.14;100.00;102697.56;5004408;28;20116;-64
2024/01/25 11:12:16;;;;;;;34.90;12.20;;;;;;;6.11;100.00;102682.78;5000305;28;20946;-64
2024/01/25 11:14:41;;;;;;;37.33;12.57;;;;;;;6.13;100.00;102675.19;4976548;28;20023;-64
2024/01/25 11:17:20;;;;;;;32.65;11.63;;;;;;;6.18;100.00;102668.72;4989221;28;20089;-64
2024/01/25 11:19:47;;;;;;;34.75;12.10;;;;;;;6.24;100.00;102674.34;4976626;28;20077;-64
2024/01/25 11:22:13;;;;;;;35.67;12.93;;;;;;;6.25;100.00;102680.41;4989672;28;20030;-64
2024/01/25 11:24:39;;;;;;;37.08;12.52;;;;;;;6.28;100.00;102675.50;4994380;28;20121;-64
2024/01/25 11:27:05;;;;;;;28.98;11.57;;;;;;;6.31;100.00;102677.44;4996871;28;20034;-64
2024/01/25 11:29:30;;;;;;;30.85;13.30;;;;;;;6.33;100.00;102668.16;4976012;28;20396;-64
2024/01/25 11:31:56;;;;;;;41.13;13.93;;;;;;;6.35;100.00;102653.72;4976945;28;20024;-64
2024/01/25 11:34:23;;;;;;;42.05;16.52;;;;;;;6.35;100.00;102641.72;4975870;28;20069;-64
2024/01/25 11:36:48;;;;;;;39.40;14.68;;;;;;;6.43;100.00;102656.88;4989404;28;20030;-64
2024/01/25 11:39:15;;;;;;;37.40;17.15;;;;;;;6.45;100.00;102647.59;5006425;28;20033;-64
2024/01/25 11:41:42;;;;;;;35.40;15.82;;;;;;;6.49;100.00;102652.22;4995239;28;20034;-64
2024/01/25 11:44:09;;;;;;;38.30;17.60;;;;;;;6.53;100.00;102653.34;4976885;28;20018;-64
2024/01/25 11:46:35;;;;;;;39.88;17.45;;;;;;;6.31;100.00;102643.94;5001563;28;20054;-64
2024/01/25 11:49:00;;;;;;;44.65;17.98;;;;;;;6.30;100.00;102636.97;4995663;28;20381;-64
2024/01/25 11:51:26;;;;;;;44.33;18.55;;;;;;;6.34;100.00;102639.94;4994592;28;20034;-64